LGHI 060850Z 36019KT 9999 FEW020 20/13 Q1019
From batch tds/metars/production/2022/10/6/h09_m29_metars.cache.csv.gz
Observed at (about 1 hour ago)
Identifier LGHI
LGKF 060850Z 02010KT 9999 FEW025 23/10 Q1024
From batch tds/metars/production/2022/10/6/h09_m29_metars.cache.csv.gz
Observed at (about 1 hour ago)
Identifier LGKF
LGKZ 060850Z 33007KT 9999 FEW025 BKN080 15/01 Q1029
From batch tds/metars/production/2022/10/6/h09_m29_metars.cache.csv.gz
Observed at (about 1 hour ago)
Identifier LGKZ
LGNX 060850Z 36015G28KT 9999 SCT025 21/12 Q1020
From batch tds/metars/production/2022/10/6/h09_m29_metars.cache.csv.gz
Observed at (about 1 hour ago)
Identifier LGNX
LGPA 060850Z 35020KT 9999 SCT025 21/11 Q1020
From batch tds/metars/production/2022/10/6/h09_m29_metars.cache.csv.gz
Observed at (about 1 hour ago)
Identifier LGPA
LGSK 060850Z 01011KT 9999 FEW018 21/11 Q1024
From batch tds/metars/production/2022/10/6/h09_m29_metars.cache.csv.gz
Observed at (about 1 hour ago)
Identifier LGSK
LGSM 060850Z 01010G20KT CAVOK 20/09 Q1018
From batch tds/metars/production/2022/10/6/h09_m29_metars.cache.csv.gz
Observed at (about 1 hour ago)
Identifier LGSM
LGSO 060850Z 36023G33KT 9999 FEW012 SCT018 21/13 Q1021
From batch tds/metars/production/2022/10/6/h09_m29_metars.cache.csv.gz
Observed at (about 1 hour ago)
Identifier LGSO
LGZA 060850Z 03009KT 9999 FEW020 23/10 Q1024
From batch tds/metars/production/2022/10/6/h09_m29_metars.cache.csv.gz
Observed at (about 1 hour ago)
Identifier LGZA
LIBC 060850Z 36011KT 330V030 CAVOK 21/10 Q1027
From batch tds/metars/production/2022/10/6/h09_m29_metars.cache.csv.gz
Observed at (about 1 hour ago)
Identifier LIBC
LIBF 060850Z VRB02KT CAVOK 20/10 Q1028
From batch tds/metars/production/2022/10/6/h09_m29_metars.cache.csv.gz
Observed at (about 1 hour ago)
Identifier LIBF
LIBG 060850Z 03007KT 340V060 CAVOK 22/10 Q1026
From batch tds/metars/production/2022/10/6/h09_m29_metars.cache.csv.gz
Observed at (about 1 hour ago)
Identifier LIBG
LIMA 060850Z VRB03KT 6000 NSC 18/14 Q1028
From batch tds/metars/production/2022/10/6/h09_m29_metars.cache.csv.gz
Observed at (about 1 hour ago)
Identifier LIMA
LIMG 060850Z VRB01KT 9999 FEW040 18/15 Q1028
From batch tds/metars/production/2022/10/6/h09_m29_metars.cache.csv.gz
Observed at (about 1 hour ago)
Identifier LIMG
LIMP 060850Z 29003KT 190V360 CAVOK 20/14 Q1028
From batch tds/metars/production/2022/10/6/h09_m29_metars.cache.csv.gz
Observed at (about 1 hour ago)
Identifier LIMP
LIMW 060850Z AUTO VRB02KT 9999 NCD 16/08 Q1029
From batch tds/metars/production/2022/10/6/h09_m29_metars.cache.csv.gz
Observed at (about 1 hour ago)
Identifier LIMW
LIPB 060850Z VRB01KT CAVOK 16/10 Q1029
From batch tds/metars/production/2022/10/6/h09_m29_metars.cache.csv.gz
Observed at (about 1 hour ago)
Identifier LIPB
LIPK 060850Z 00000KT CAVOK 20/16 Q1028
From batch tds/metars/production/2022/10/6/h09_m29_metars.cache.csv.gz
Observed at (about 1 hour ago)
Identifier LIPK
LIPU 060850Z VRB02KT 6000 NSC 19/16 Q1028
From batch tds/metars/production/2022/10/6/h09_m29_metars.cache.csv.gz
Observed at (about 1 hour ago)
Identifier LIPU
LIRI 060850Z VRB02KT CAVOK 22/04 Q1026
From batch tds/metars/production/2022/10/6/h09_m29_metars.cache.csv.gz
Observed at (about 1 hour ago)
Identifier LIRI
LIRU 060850Z 05003KT 360V090 CAVOK 20/15 Q1027
From batch tds/metars/production/2022/10/6/h09_m29_metars.cache.csv.gz
Observed at (about 1 hour ago)
Identifier LIRU
LTAR 060850Z VRB05KT 9999 SCT035 15/07 Q1024
From batch tds/metars/production/2022/10/6/h09_m29_metars.cache.csv.gz
Observed at (about 1 hour ago)
Identifier LTAR
LTAS 060850Z VRB02KT 9999 SCT040 19/12 Q1025
From batch tds/metars/production/2022/10/6/h09_m29_metars.cache.csv.gz
Observed at (about 1 hour ago)
Identifier LTAS
LTAW 060850Z 02011KT 340V060 9999 BKN030 16/09 Q1024
From batch tds/metars/production/2022/10/6/h09_m29_metars.cache.csv.gz
Observed at (about 1 hour ago)
Identifier LTAW
LTAY 060850Z 07012KT 030V090 9999 FEW035 19/07 Q1020
From batch tds/metars/production/2022/10/6/h09_m29_metars.cache.csv.gz
Observed at (about 1 hour ago)
Identifier LTAY
LTBD 060850Z 06008KT 010V100 CAVOK 24/08 Q1017
From batch tds/metars/production/2022/10/6/h09_m29_metars.cache.csv.gz
Observed at (about 1 hour ago)
Identifier LTBD
LTBF 060850Z 02021KT 9999 FEW035 21/09 Q1022 NOSIG
From batch tds/metars/production/2022/10/6/h09_m29_metars.cache.csv.gz
Observed at (about 1 hour ago)
Identifier LTBF
LTBH 060850Z 07017KT 9999 SCT035 BKN200 20/10 Q1024
From batch tds/metars/production/2022/10/6/h09_m29_metars.cache.csv.gz
Observed at (about 1 hour ago)
Identifier LTBH
LTBO 060850Z 07018KT 9999 FEW040 18/06 Q1021
From batch tds/metars/production/2022/10/6/h09_m29_metars.cache.csv.gz
Observed at (about 1 hour ago)
Identifier LTBO
talk